Time;durP1;ratioP1;P1;durP2;ratioP2;P2;SDS_P1;SDS_P2;PMS_P1;PMS_P2;Temp;Humidity;BMP_temperature;BMP_pressure;BME280_temperature;BME280_humidity;BME280_pressure;Samples;Min_cycle;Max_cycle;Signal;HPM_P1;HPM_P2
2022/03/09 00:01:34;;;;;;;38.15;15.77;;;;;;;-3.05;78.39;98950.00;5008553;28;20086;-66
2022/03/09 00:03:59;;;;;;;34.75;9.07;;;;;;;-3.11;78.10;98954.91;5008648;28;20318;-66
2022/03/09 00:06:25;;;;;;;24.67;10.88;;;;;;;-3.24;78.68;98948.44;5008769;28;20087;-66
2022/03/09 00:08:51;;;;;;;18.92;9.13;;;;;;;-3.12;78.83;98955.75;5008407;28;20030;-66
2022/03/09 00:11:16;;;;;;;39.28;13.75;;;;;;;-3.35;78.76;98959.97;5008376;28;20033;-66
2022/03/09 00:13:42;;;;;;;37.72;14.23;;;;;;;-3.22;79.13;98971.66;5007820;28;20306;-66
2022/03/09 00:16:07;;;;;;;39.05;12.07;;;;;;;-3.27;78.97;98962.84;5008196;28;20026;-66
2022/03/09 00:18:33;;;;;;;46.80;13.82;;;;;;;-3.13;79.19;98978.03;5008021;28;20029;-66
2022/03/09 00:20:58;;;;;;;33.30;11.88;;;;;;;-3.18;79.43;98983.81;5007957;28;20210;-66
2022/03/09 00:23:24;;;;;;;31.50;10.23;;;;;;;-3.17;78.63;98983.88;5007669;28;20029;-66
2022/03/09 00:25:49;;;;;;;41.33;13.60;;;;;;;-3.36;78.51;98972.81;5007835;28;20041;-66
2022/03/09 00:28:15;;;;;;;24.85;11.20;;;;;;;-3.41;79.19;98976.88;5007737;28;20022;-66
2022/03/09 00:30:40;;;;;;;19.05;9.73;;;;;;;-3.55;80.05;98980.59;5008048;28;20329;-66
2022/03/09 00:33:05;;;;;;;22.20;6.95;;;;;;;-3.51;81.10;98975.63;5007658;28;20049;-66
2022/03/09 00:35:31;;;;;;;23.05;8.43;;;;;;;-3.41;80.74;98980.34;5007503;28;20022;-66
2022/03/09 00:37:56;;;;;;;19.92;7.35;;;;;;;-3.49;80.89;98979.16;5007492;28;20022;-66
2022/03/09 00:40:22;;;;;;;17.08;7.18;;;;;;;-3.58;80.79;98983.06;5007602;28;20213;-66
2022/03/09 00:42:48;;;;;;;22.13;8.30;;;;;;;-3.62;80.65;98982.03;5007330;28;20022;-66
2022/03/09 00:45:13;;;;;;;20.00;7.43;;;;;;;-3.60;80.41;98994.97;5007494;28;20022;-66
2022/03/09 00:47:39;;;;;;;18.23;8.40;;;;;;;-3.53;80.66;98990.13;5007533;28;20034;-66
2022/03/09 00:50:05;;;;;;;24.42;9.65;;;;;;;-3.47;80.18;98994.63;5007001;28;20022;-66
2022/03/09 00:52:31;;;;;;;28.52;8.88;;;;;;;-3.51;79.97;98987.63;5005637;28;20034;-66
2022/03/09 00:54:56;;;;;;;22.60;9.48;;;;;;;-3.54;80.65;98982.34;5005897;28;20018;-66
2022/03/09 00:57:22;;;;;;;18.65;8.15;;;;;;;-3.59;80.49;98983.84;5007217;28;20344;-66
2022/03/09 00:59:48;;;;;;;12.50;6.25;;;;;;;-3.62;80.41;98988.84;5007032;28;20022;-66
2022/03/09 01:02:13;;;;;;;35.13;10.48;;;;;;;-3.65;80.88;98979.34;5007021;28;20078;-66
2022/03/09 01:04:39;;;;;;;26.20;9.68;;;;;;;-3.69;80.80;98997.16;5007243;28;20229;-66
2022/03/09 01:07:04;;;;;;;31.83;10.65;;;;;;;-3.89;80.94;98985.16;5006950;28;20121;-66
2022/03/09 01:09:30;;;;;;;23.70;9.63;;;;;;;-3.82;81.18;98985.47;5006925;28;20033;-66
2022/03/09 01:11:57;;;;;;;30.65;10.95;;;;;;;-3.91;80.76;98979.94;5006729;28;20029;-66
2022/03/09 01:14:23;;;;;;;42.15;9.35;;;;;;;-3.94;81.80;98971.22;5006206;28;20053;-66
2022/03/09 01:16:48;;;;;;;32.17;11.23;;;;;;;-3.96;82.10;98970.31;5006878;28;20014;-66
2022/03/09 01:19:14;;;;;;;24.35;10.48;;;;;;;-3.92;81.80;98972.19;5006773;28;20065;-66
2022/03/09 01:21:39;;;;;;;33.47;10.48;;;;;;;-3.79;82.37;98979.59;4998701;28;20349;-66
2022/03/09 01:24:06;;;;;;;26.45;9.15;;;;;;;-3.91;81.42;98979.94;5006739;28;20322;-66
2022/03/09 01:26:32;;;;;;;27.27;10.20;;;;;;;-4.01;81.25;98972.66;5006738;28;20026;-66
2022/03/09 01:28:57;;;;;;;20.10;9.80;;;;;;;-4.07;81.87;98974.09;4998678;28;20364;-66
2022/03/09 01:31:23;;;;;;;14.85;6.80;;;;;;;-4.06;81.03;98973.25;5006519;28;20026;-66
2022/03/09 01:33:48;;;;;;;25.33;10.05;;;;;;;-3.99;82.14;98970.16;5006303;28;20033;-66
2022/03/09 01:36:14;;;;;;;17.58;7.57;;;;;;;-4.08;81.98;98964.63;5006467;28;20082;-66
2022/03/09 01:38:39;;;;;;;15.50;7.47;;;;;;;-4.11;82.29;98977.34;5006308;28;20029;-66
2022/03/09 01:41:05;;;;;;;18.83;7.25;;;;;;;-4.22;82.12;98970.84;5006214;28;20093;-66
2022/03/09 01:43:30;;;;;;;16.38;7.68;;;;;;;-4.11;82.51;98969.63;5006390;28;20018;-66
2022/03/09 01:45:56;;;;;;;33.30;9.48;;;;;;;-4.14;81.69;98979.78;5006174;28;20018;-66
2022/03/09 01:48:22;;;;;;;24.58;8.82;;;;;;;-4.22;82.32;98971.75;5006279;28;20256;-66
2022/03/09 01:50:47;;;;;;;26.30;7.13;;;;;;;-4.22;82.03;98978.56;5006169;28;20022;-66
2022/03/09 01:53:13;;;;;;;9.82;6.10;;;;;;;-4.12;81.75;98978.16;5005921;28;20030;-66
2022/03/09 01:55:39;;;;;;;15.25;7.72;;;;;;;-4.15;81.82;98978.91;5006309;28;20026;-66
2022/03/09 01:58:05;;;;;;;20.20;9.18;;;;;;;-4.19;81.85;98976.13;5006345;28;20026;-66
2022/03/09 02:00:30;;;;;;;12.38;6.50;;;;;;;-4.12;82.01;98978.16;5006422;28;20094;-66
2022/03/09 02:02:56;;;;;;;13.48;6.57;;;;;;;-4.18;82.31;98977.91;5005263;28;20033;-66
2022/03/09 02:05:22;;;;;;;11.55;5.95;;;;;;;-4.28;81.71;98973.19;5005794;28;20022;-66
2022/03/09 02:10:32;;;;;;;14.90;7.15;;;;;;;-4.34;82.26;98973.78;5005668;28;20037;-66
2022/03/09 02:12:57;;;;;;;22.13;8.90;;;;;;;-4.24;81.95;98980.22;5005405;28;20085;-66
2022/03/09 02:15:23;;;;;;;20.10;7.32;;;;;;;-4.38;82.20;98973.56;5005433;28;20389;-66
2022/03/09 02:17:48;;;;;;;12.90;6.20;;;;;;;-4.54;82.37;98972.91;5005596;28;20034;-66
2022/03/09 02:20:14;;;;;;;13.30;6.70;;;;;;;-4.47;82.62;98973.19;5005587;28;20070;-66
2022/03/09 02:22:42;;;;;;;14.45;6.78;;;;;;;-4.60;82.60;98982.91;5005510;28;20030;-66
2022/03/09 02:25:09;;;;;;;21.25;8.30;;;;;;;-4.39;82.77;98979.53;5005423;28;20022;-66
2022/03/09 02:27:35;;;;;;;13.60;6.43;;;;;;;-4.50;82.91;98982.50;5005251;28;20059;-66
2022/03/09 02:30:01;;;;;;;16.45;7.50;;;;;;;-4.51;83.51;98985.91;4988025;28;20026;-66
2022/03/09 02:32:26;;;;;;;18.90;7.13;;;;;;;-4.47;83.20;98984.31;5005121;28;20018;-66
2022/03/09 02:34:52;;;;;;;18.33;8.10;;;;;;;-4.68;83.04;98984.25;5005148;28;20038;-66
2022/03/09 02:37:18;;;;;;;12.60;6.85;;;;;;;-4.73;82.83;98990.88;5005271;28;20076;-66
2022/03/09 02:39:43;;;;;;;16.50;5.78;;;;;;;-4.55;82.65;98991.69;5005425;28;20036;-66
2022/03/09 02:42:10;;;;;;;9.75;4.35;;;;;;;-4.57;82.45;98987.31;5005254;28;20336;-66
2022/03/09 02:44:36;;;;;;;12.73;6.00;;;;;;;-4.58;82.65;98988.97;5005086;28;20026;-66
2022/03/09 02:47:02;;;;;;;33.20;8.05;;;;;;;-4.52;82.67;99001.25;5004973;28;20161;-66
2022/03/09 02:49:27;;;;;;;9.75;5.80;;;;;;;-4.67;82.42;99008.25;5005001;28;20247;-66
2022/03/09 02:51:53;;;;;;;9.68;6.22;;;;;;;-4.63;82.96;99002.44;5004802;28;20029;-66
2022/03/09 02:54:18;;;;;;;16.33;6.18;;;;;;;-4.74;82.33;98994.22;5004829;28;20050;-66
2022/03/09 02:56:44;;;;;;;18.77;6.25;;;;;;;-4.74;83.27;98993.38;5004705;28;20037;-66
2022/03/09 02:59:10;;;;;;;18.77;6.85;;;;;;;-4.78;83.38;98992.34;5004867;28;20026;-66
2022/03/09 03:01:36;;;;;;;25.13;10.38;;;;;;;-4.76;84.12;98985.59;5004820;28;20030;-66
2022/03/09 03:04:01;;;;;;;27.65;11.70;;;;;;;-4.65;83.84;98997.22;5004760;28;20041;-66
2022/03/09 03:06:27;;;;;;;25.25;10.43;;;;;;;-4.81;82.77;98987.06;5004737;28;20026;-66
2022/03/09 03:08:52;;;;;;;22.08;7.28;;;;;;;-4.98;82.45;98988.00;5004692;28;20041;-66
2022/03/09 03:11:17;;;;;;;16.75;7.38;;;;;;;-4.93;83.13;98985.66;5004726;28;20030;-66
2022/03/09 03:13:44;;;;;;;15.82;6.55;;;;;;;-4.99;82.84;98978.56;5004421;28;20070;-66
2022/03/09 03:16:11;;;;;;;24.55;7.85;;;;;;;-4.95;83.37;98977.88;5003990;28;20022;-66
2022/03/09 03:18:37;;;;;;;17.08;5.78;;;;;;;-4.93;83.04;98981.38;5004574;28;20026;-66
2022/03/09 03:21:04;;;;;;;11.20;6.00;;;;;;;-4.94;82.82;98989.88;5004536;28;20082;-66
2022/03/09 03:23:31;;;;;;;14.10;5.93;;;;;;;-4.95;83.05;98990.72;5004541;28;20057;-66
2022/03/09 03:25:57;;;;;;;19.85;6.63;;;;;;;-4.97;83.12;98994.88;5004314;28;20030;-66
2022/03/09 03:28:24;;;;;;;20.20;7.53;;;;;;;-5.07;82.64;98987.56;5004500;28;20030;-66
2022/03/09 03:30:50;;;;;;;9.75;5.07;;;;;;;-5.09;83.09;98989.16;5004642;28;20266;-66
2022/03/09 03:33:17;;;;;;;10.27;6.03;;;;;;;-5.11;83.08;98990.81;5004317;28;20345;-66
2022/03/09 03:35:43;;;;;;;11.50;4.78;;;;;;;-5.12;83.36;98989.03;5004439;28;20026;-66
2022/03/09 03:38:09;;;;;;;26.55;7.60;;;;;;;-5.06;84.22;98984.19;5004394;28;20221;-66
2022/03/09 03:40:35;;;;;;;22.00;4.25;;;;;;;-5.04;83.48;98985.16;5004307;28;20030;-66
2022/03/09 03:43:01;;;;;;;9.25;5.13;;;;;;;-5.15;83.21;98978.66;5004173;28;20119;-66
2022/03/09 03:45:26;;;;;;;4.15;3.08;;;;;;;-5.08;82.78;98984.94;5004315;28;20031;-66
2022/03/09 03:47:52;;;;;;;15.98;6.32;;;;;;;-5.17;83.08;98979.38;5004306;28;20068;-66
2022/03/09 03:50:18;;;;;;;19.02;6.20;;;;;;;-5.23;82.58;98979.97;5004295;28;20114;-66
2022/03/09 03:52:43;;;;;;;15.77;6.32;;;;;;;-5.16;83.99;98987.13;5004254;28;20217;-66
2022/03/09 03:55:09;;;;;;;14.35;5.90;;;;;;;-5.20;82.77;98985.22;5003963;28;20030;-66
2022/03/09 03:57:34;;;;;;;11.27;6.40;;;;;;;-5.14;83.12;98988.09;5004853;28;20119;-66
2022/03/09 04:00:00;;;;;;;10.23;5.63;;;;;;;-5.18;83.19;98981.06;5004203;28;20247;-66
2022/03/09 04:02:25;;;;;;;14.45;5.15;;;;;;;-5.14;83.22;98984.63;5004511;28;20046;-66
2022/03/09 04:04:51;;;;;;;6.82;4.32;;;;;;;-5.25;82.76;98981.56;5004524;28;20022;-66
2022/03/09 04:07:17;;;;;;;8.60;5.05;;;;;;;-5.37;83.14;98986.13;5004443;28;20069;-66
2022/03/09 04:09:43;;;;;;;7.15;4.13;;;;;;;-5.33;84.19;98982.00;5004280;28;20249;-66
2022/03/09 04:12:09;;;;;;;8.52;4.05;;;;;;;-5.38;82.63;98974.09;5004339;28;20064;-66
2022/03/09 04:14:36;;;;;;;13.05;4.90;;;;;;;-5.35;83.51;98989.63;5004091;28;20050;-67
2022/03/09 04:17:01;;;;;;;7.68;3.47;;;;;;;-5.42;83.49;98982.47;5004312;28;20022;-66
2022/03/09 04:19:27;;;;;;;14.40;5.75;;;;;;;-5.49;83.32;98980.41;5004246;28;20018;-66
2022/03/09 04:21:52;;;;;;;9.25;5.75;;;;;;;-5.45;83.74;98987.44;5004317;28;20022;-66
2022/03/09 04:24:18;;;;;;;12.27;4.88;;;;;;;-5.46;83.72;98985.69;5004186;28;20041;-66
2022/03/09 04:26:44;;;;;;;19.83;7.38;;;;;;;-5.54;83.21;98981.00;5005926;28;20026;-66
2022/03/09 04:29:09;;;;;;;8.05;4.00;;;;;;;-5.63;83.45;98981.41;5007834;28;20022;-66
2022/03/09 04:31:35;;;;;;;12.65;3.97;;;;;;;-5.47;83.93;98989.03;5007528;28;20268;-66
2022/03/09 04:34:00;;;;;;;11.18;5.63;;;;;;;-5.60;83.01;98989.25;5007702;28;20018;-66
2022/03/09 04:36:26;;;;;;;19.17;7.93;;;;;;;-5.69;83.92;98982.81;5007730;28;20344;-67
2022/03/09 04:38:51;;;;;;;37.63;7.32;;;;;;;-5.74;83.75;98986.81;5007843;28;20022;-66
2022/03/09 04:41:16;;;;;;;9.65;4.82;;;;;;;-5.60;84.75;98998.66;5007457;28;20249;-66
2022/03/09 04:43:42;;;;;;;25.30;6.20;;;;;;;-5.51;84.32;98992.28;5007585;28;20041;-66
2022/03/09 04:46:07;;;;;;;9.25;6.25;;;;;;;-5.48;84.17;99002.69;5007493;28;20213;-66
2022/03/09 04:48:33;;;;;;;9.63;4.53;;;;;;;-5.52;84.42;98994.75;5007360;28;20344;-66
2022/03/09 04:51:00;;;;;;;10.13;4.40;;;;;;;-5.55;84.61;98998.06;5007343;28;20029;-66
2022/03/09 04:53:25;;;;;;;13.35;6.28;;;;;;;-5.55;84.42;98995.50;5007458;28;20340;-66
2022/03/09 04:55:51;;;;;;;9.75;5.57;;;;;;;-5.69;83.55;98990.50;5007222;28;20022;-66
2022/03/09 04:58:16;;;;;;;17.08;5.57;;;;;;;-5.58;83.98;98995.34;5007255;28;20045;-66
2022/03/09 05:00:41;;;;;;;9.70;4.63;;;;;;;-5.52;84.76;98990.53;5005424;28;20022;-66
2022/03/09 05:03:07;;;;;;;9.38;5.45;;;;;;;-5.53;83.81;98998.13;5006212;28;20065;-66
2022/03/09 05:05:32;;;;;;;12.57;4.75;;;;;;;-5.73;83.66;98998.88;5006208;28;20022;-66
2022/03/09 05:07:58;;;;;;;9.50;6.63;;;;;;;-5.65;84.04;98992.41;5006186;28;20034;-66
2022/03/09 05:10:23;;;;;;;11.48;6.22;;;;;;;-5.75;83.71;98998.78;5005992;28;20299;-66
2022/03/09 05:12:48;;;;;;;8.00;4.57;;;;;;;-5.77;83.84;98999.50;5004916;28;20022;-66
2022/03/09 05:15:14;;;;;;;13.73;4.28;;;;;;;-5.74;83.99;99004.78;5005483;28;20042;-66
2022/03/09 05:17:44;;;;;;;15.32;6.50;;;;;;;-5.78;83.68;99001.19;5006032;28;20033;-65
2022/03/09 05:20:11;;;;;;;11.68;4.65;;;;;;;-5.82;83.65;99004.41;5005604;28;20026;-66
2022/03/09 05:22:37;;;;;;;7.45;3.78;;;;;;;-5.81;83.58;99001.03;5005906;28;20194;-66
2022/03/09 05:25:04;;;;;;;9.45;5.05;;;;;;;-5.72;83.58;99001.50;5005439;28;20090;-66
2022/03/09 05:27:29;;;;;;;7.63;3.63;;;;;;;-5.76;83.40;98999.56;5005721;28;20317;-66
2022/03/09 05:29:55;;;;;;;13.98;5.00;;;;;;;-5.76;83.33;99004.69;5005558;28;20093;-66
2022/03/09 05:32:20;;;;;;;11.75;6.40;;;;;;;-5.73;83.95;99009.97;5005221;28;20191;-67
2022/03/09 05:34:49;;;;;;;16.27;4.60;;;;;;;-5.77;83.84;99013.19;5005049;28;20261;-66
2022/03/09 05:37:15;;;;;;;13.25;5.80;;;;;;;-5.75;84.06;99011.59;5004879;28;20133;-66
2022/03/09 05:39:40;;;;;;;6.30;3.72;;;;;;;-5.86;83.93;99002.50;5005080;28;20023;-66
2022/03/09 05:42:06;;;;;;;7.32;4.35;;;;;;;-5.84;84.18;99011.19;5006351;28;20029;-66
2022/03/09 05:44:32;;;;;;;10.68;5.90;;;;;;;-5.80;83.74;99005.34;5006341;28;20187;-66
2022/03/09 05:46:57;;;;;;;5.50;3.45;;;;;;;-5.77;83.69;99002.94;5006220;28;20022;-66
2022/03/09 05:49:23;;;;;;;8.50;3.95;;;;;;;-5.86;83.56;99012.75;5006456;28;20030;-66
2022/03/09 05:51:49;;;;;;;10.25;4.82;;;;;;;-5.90;84.11;99016.00;5006265;28;20214;-66
2022/03/09 05:54:15;;;;;;;7.93;4.32;;;;;;;-5.84;84.04;99021.44;5006053;28;20023;-66
2022/03/09 05:56:41;;;;;;;12.52;5.43;;;;;;;-5.74;84.18;99022.72;5006128;28;20057;-66
2022/03/09 05:59:07;;;;;;;9.18;3.22;;;;;;;-5.83;83.63;99029.97;5006074;28;20022;-66
2022/03/09 06:01:33;;;;;;;14.63;4.45;;;;;;;-5.92;83.88;99032.09;5006059;28;20026;-66
2022/03/09 06:03:58;;;;;;;5.95;3.85;;;;;;;-5.83;84.39;99033.44;5005994;28;20044;-66
2022/03/09 06:06:24;;;;;;;14.02;4.03;;;;;;;-5.80;84.47;99028.41;5005970;28;20022;-66
2022/03/09 06:08:49;;;;;;;13.35;4.40;;;;;;;-5.74;84.17;99032.97;5005949;28;20026;-66
2022/03/09 06:11:14;;;;;;;9.88;5.55;;;;;;;-5.77;84.62;99048.19;5005762;28;20087;-66
2022/03/09 06:13:40;;;;;;;14.20;4.55;;;;;;;-5.72;84.64;99042.50;5005561;28;20258;-66
2022/03/09 06:16:05;;;;;;;25.23;6.43;;;;;;;-5.64;84.76;99046.31;5005789;28;20030;-66
2022/03/09 06:18:31;;;;;;;11.13;5.20;;;;;;;-5.58;84.48;99056.88;5005691;28;20081;-66
2022/03/09 06:20:56;;;;;;;11.50;5.97;;;;;;;-5.55;83.58;99076.66;5005641;28;20068;-66
2022/03/09 06:23:22;;;;;;;9.70;5.30;;;;;;;-5.51;83.33;99064.06;5005647;28;20336;-66
2022/03/09 06:25:47;;;;;;;18.38;6.65;;;;;;;-5.32;83.46;99066.72;5005896;28;20030;-66
2022/03/09 06:28:13;;;;;;;8.93;4.47;;;;;;;-5.15;83.82;99076.16;5005782;28;20257;-66
2022/03/09 06:30:38;;;;;;;6.40;4.18;;;;;;;-4.87;82.59;99073.19;5005883;28;20045;-66
2022/03/09 06:33:04;;;;;;;7.00;4.38;;;;;;;-4.70;81.75;99077.44;5005685;28;20022;-66
2022/03/09 06:35:29;;;;;;;22.52;6.60;;;;;;;-4.33;80.86;99097.97;5004652;28;20030;-66
2022/03/09 06:37:55;;;;;;;12.75;4.45;;;;;;;-4.02;80.63;99093.41;5005342;28;20022;-66
2022/03/09 06:40:21;;;;;;;13.00;5.15;;;;;;;-3.59;79.53;99097.03;5005887;28;20420;-66
2022/03/09 06:42:47;;;;;;;17.10;5.30;;;;;;;-3.23;78.37;99098.59;5005811;28;20022;-66
2022/03/09 06:45:13;;;;;;;11.15;5.57;;;;;;;-2.66;77.60;99106.09;5005841;28;20365;-66
2022/03/09 06:47:39;;;;;;;14.15;5.75;;;;;;;-2.31;76.05;99116.06;5005504;28;20025;-66
2022/03/09 06:50:07;;;;;;;18.42;5.57;;;;;;;-1.83;74.44;99117.91;5006050;28;20033;-66
2022/03/09 06:52:32;;;;;;;18.40;6.28;;;;;;;-1.42;72.88;99107.34;5006289;28;20065;-66
2022/03/09 06:55:02;;;;;;;19.33;6.55;;;;;;;-1.13;72.03;99106.63;5005908;28;20018;-66
2022/03/09 06:57:29;;;;;;;15.38;5.85;;;;;;;-0.78;70.52;99113.84;5005813;28;20026;-66
2022/03/09 06:59:56;;;;;;;18.00;5.65;;;;;;;-0.50;69.96;99108.69;5005851;28;20129;-66
2022/03/09 07:02:22;;;;;;;16.85;6.70;;;;;;;-0.17;68.69;99114.91;5005897;28;20033;-66
2022/03/09 07:04:47;;;;;;;15.57;6.50;;;;;;;0.10;67.51;99106.19;5005692;28;20038;-66
2022/03/09 07:07:12;;;;;;;19.08;8.10;;;;;;;0.40;66.60;99114.81;5005801;28;20022;-66
2022/03/09 07:09:38;;;;;;;22.05;8.60;;;;;;;0.62;65.41;99112.88;5005588;28;20026;-66
2022/03/09 07:12:03;;;;;;;26.50;8.07;;;;;;;1.01;64.43;99113.06;5005656;28;20082;-66
2022/03/09 07:14:29;;;;;;;15.82;7.68;;;;;;;1.27;64.09;99111.97;5005742;28;20058;-66
2022/03/09 07:16:54;;;;;;;22.67;8.60;;;;;;;1.65;62.91;99111.16;5005720;28;20117;-66
2022/03/09 07:19:20;;;;;;;16.70;7.10;;;;;;;1.85;62.44;99115.09;5005857;28;20029;-66
2022/03/09 07:21:45;;;;;;;27.65;11.15;;;;;;;2.03;61.67;99120.69;5006015;28;20089;-66
2022/03/09 07:24:10;;;;;;;48.58;13.27;;;;;;;2.44;61.34;99109.44;5005937;28;20308;-66
2022/03/09 07:26:40;;;;;;;41.75;16.17;;;;;;;2.90;60.15;99127.66;5005970;28;20195;-66
2022/03/09 07:29:07;;;;;;;42.70;16.77;;;;;;;3.23;59.32;99123.03;5006225;28;20262;-66
2022/03/09 07:31:32;;;;;;;31.83;13.63;;;;;;;3.45;58.50;99125.16;5006101;28;20097;-66
2022/03/09 07:33:57;;;;;;;33.55;14.57;;;;;;;3.83;58.55;99134.44;5006219;28;20338;-66
2022/03/09 07:36:23;;;;;;;32.35;13.73;;;;;;;4.07;57.11;99129.59;5006285;28;20077;-66
2022/03/09 07:38:48;;;;;;;29.30;13.07;;;;;;;3.50;58.10;99115.72;5006111;28;20022;-66
2022/03/09 07:41:14;;;;;;;32.25;14.32;;;;;;;4.48;57.71;99128.41;5006094;28;20022;-66
2022/03/09 07:43:39;;;;;;;50.10;17.90;;;;;;;5.23;55.97;99145.75;5006203;28;20018;-66
2022/03/09 07:46:04;;;;;;;42.70;19.70;;;;;;;5.38;55.66;99144.16;5006125;28;20026;-66
2022/03/09 07:48:31;;;;;;;47.92;22.63;;;;;;;5.31;54.97;99131.91;5006525;28;20022;-66
2022/03/09 07:50:57;;;;;;;43.38;18.85;;;;;;;6.05;54.90;99150.84;5005946;28;20069;-66
2022/03/09 07:53:23;;;;;;;44.25;19.08;;;;;;;6.54;53.39;99147.63;5006164;28;20026;-66
2022/03/09 07:55:48;;;;;;;37.83;16.08;;;;;;;6.88;52.80;99149.50;5005991;28;20022;-66
2022/03/09 07:58:13;;;;;;;26.55;12.45;;;;;;;7.28;52.29;99146.09;5006160;28;20026;-67
2022/03/09 08:00:40;;;;;;;34.83;15.45;;;;;;;7.60;51.50;99154.91;5006303;28;20029;-67
2022/03/09 08:03:05;;;;;;;35.28;17.02;;;;;;;7.95;50.38;99153.16;5010048;28;20022;-67
2022/03/09 08:05:31;;;;;;;33.72;16.17;;;;;;;7.87;49.27;99147.03;5010051;28;20025;-67
2022/03/09 08:07:56;;;;;;;31.45;15.30;;;;;;;8.19;50.23;99158.34;5009858;28;20309;-67
2022/03/09 08:10:22;;;;;;;24.52;12.77;;;;;;;8.85;48.86;99161.72;5009885;28;20073;-67
2022/03/09 08:12:48;;;;;;;29.75;13.07;;;;;;;9.06;48.30;99157.22;5009599;28;20022;-67
2022/03/09 08:15:13;;;;;;;24.42;12.82;;;;;;;9.01;47.80;99147.63;5009315;28;20261;-67
2022/03/09 08:17:39;;;;;;;25.80;11.95;;;;;;;9.59;48.59;99157.75;5009513;28;20033;-67
2022/03/09 08:20:06;;;;;;;22.52;10.93;;;;;;;10.14;47.84;99155.56;5009630;28;20045;-67
2022/03/09 08:22:31;;;;;;;17.88;9.32;;;;;;;10.50;46.19;99157.81;5009482;28;20022;-67
2022/03/09 08:24:57;;;;;;;20.20;10.13;;;;;;;10.62;45.45;99152.44;5009293;28;20245;-67
2022/03/09 08:27:22;;;;;;;19.75;8.98;;;;;;;11.00;44.67;99155.47;5009395;28;20045;-67
2022/03/09 08:29:50;;;;;;;13.73;8.10;;;;;;;11.20;44.37;99155.22;5009488;28;20221;-67
2022/03/09 08:32:17;;;;;;;15.23;8.40;;;;;;;11.51;44.60;99156.50;5009578;28;20018;-67
2022/03/09 08:34:42;;;;;;;15.27;8.00;;;;;;;12.00;43.25;99147.88;5009317;28;20041;-67
2022/03/09 08:37:08;;;;;;;13.02;7.03;;;;;;;12.27;43.25;99136.81;5009254;28;20317;-67
2022/03/09 08:39:33;;;;;;;10.70;6.55;;;;;;;12.60;42.15;99136.16;5009326;28;20073;-67
2022/03/09 08:41:59;;;;;;;10.88;7.03;;;;;;;12.62;41.08;99134.38;5009123;28;20022;-67
2022/03/09 08:44:24;;;;;;;13.27;7.63;;;;;;;12.65;41.16;99139.59;5009368;28;20018;-67
2022/03/09 08:46:53;;;;;;;47.47;24.88;;;;;;;12.51;40.81;99146.94;5009422;28;20073;-67
2022/03/09 08:49:18;;;;;;;20.33;11.30;;;;;;;12.95;37.81;99149.53;5009451;28;20029;-67
2022/03/09 08:51:44;;;;;;;33.72;19.05;;;;;;;13.12;38.18;99145.72;5008873;28;20022;-67
2022/03/09 08:54:09;;;;;;;30.30;16.52;;;;;;;13.62;37.25;99145.47;5008808;28;20089;-67
2022/03/09 08:56:35;;;;;;;18.58;12.00;;;;;;;13.07;37.60;99141.41;5008874;28;20018;-67
2022/03/09 08:59:00;;;;;;;19.92;10.57;;;;;;;13.34;36.30;99132.00;5008913;28;20021;-67
2022/03/09 09:01:25;;;;;;;13.43;8.65;;;;;;;13.59;33.34;99127.00;5008900;28;20038;-67
2022/03/09 09:03:51;;;;;;;16.77;9.75;;;;;;;13.01;33.97;99128.31;5008874;28;20147;-67
2022/03/09 09:06:16;;;;;;;12.63;7.78;;;;;;;12.85;32.60;99126.84;5008930;28;20094;-67
2022/03/09 09:08:42;;;;;;;19.08;8.50;;;;;;;12.58;33.10;99122.16;5008609;28;20101;-67
2022/03/09 09:11:08;;;;;;;15.93;8.68;;;;;;;13.77;32.98;99142.47;5008498;28;20025;-67
2022/03/09 09:13:33;;;;;;;17.30;9.52;;;;;;;13.28;33.18;99141.81;5007166;28;20030;-67
2022/03/09 09:15:59;;;;;;;15.90;9.25;;;;;;;13.44;32.68;99127.38;5008654;28;20041;-67
2022/03/09 09:18:25;;;;;;;14.05;8.63;;;;;;;12.81;32.95;99135.75;5008570;28;20046;-67
2022/03/09 09:20:52;;;;;;;17.90;9.57;;;;;;;13.06;33.32;99130.00;5008129;28;20018;-67
2022/03/09 09:23:17;;;;;;;18.48;9.45;;;;;;;13.71;31.94;99147.91;5008325;28;20026;-67
2022/03/09 09:25:43;;;;;;;17.05;9.32;;;;;;;12.68;32.38;99123.69;5008232;28;20018;-67
2022/03/09 09:28:09;;;;;;;21.15;10.82;;;;;;;13.08;32.84;99134.34;5008227;28;20030;-66
2022/03/09 09:30:34;;;;;;;17.52;9.20;;;;;;;13.18;32.83;99135.00;5008225;28;20025;-67
2022/03/09 09:33:00;;;;;;;15.73;8.65;;;;;;;13.30;32.14;99145.31;5008022;28;20229;-67
2022/03/09 09:35:26;;;;;;;17.20;8.85;;;;;;;14.14;31.57;99138.00;5008539;28;20094;-67
2022/03/09 09:37:52;;;;;;;16.48;8.57;;;;;;;14.51;31.93;99138.78;5008119;28;20022;-67
2022/03/09 09:40:17;;;;;;;17.10;9.13;;;;;;;14.26;30.79;99132.41;5007888;28;20026;-67
2022/03/09 09:42:44;;;;;;;18.45;9.75;;;;;;;14.67;31.04;99142.75;5007764;28;20085;-67
2022/03/09 09:45:10;;;;;;;18.27;9.20;;;;;;;15.08;30.58;99143.34;5008535;28;20018;-67
2022/03/09 09:47:35;;;;;;;17.85;9.02;;;;;;;14.37;31.67;99130.38;5008352;28;20026;-67
2022/03/09 09:50:02;;;;;;;17.45;9.25;;;;;;;14.84;30.74;99128.13;5008066;28;20217;-67
2022/03/09 09:52:32;;;;;;;16.10;9.45;;;;;;;14.06;31.79;99134.66;5007868;28;20090;-67
2022/03/09 09:54:59;;;;;;;15.18;9.13;;;;;;;15.11;30.41;99139.72;5007873;28;20029;-67
2022/03/09 09:57:27;;;;;;;19.05;9.68;;;;;;;15.03;30.14;99123.19;5008505;28;20037;-67
2022/03/09 09:59:52;;;;;;;16.95;9.13;;;;;;;15.36;30.89;99138.06;5007839;28;20222;-67
2022/03/09 10:02:18;;;;;;;18.65;10.88;;;;;;;14.97;30.06;99116.25;5007584;28;20085;-67
2022/03/09 10:04:46;;;;;;;17.58;9.88;;;;;;;15.74;29.43;99115.69;5007902;28;20045;-67
2022/03/09 10:07:15;;;;;;;16.60;9.65;;;;;;;15.99;29.17;99128.13;5007649;28;20030;-67
2022/03/09 10:09:41;;;;;;;16.75;9.88;;;;;;;15.56;29.57;99103.88;5008120;28;20305;-67
2022/03/09 10:12:08;;;;;;;20.15;10.38;;;;;;;15.37;30.29;99134.53;5007818;28;20348;-67
2022/03/09 10:14:50;;;;;;;17.15;10.30;;;;;;;15.85;29.38;99122.38;5007476;28;20384;-67
2022/03/09 10:17:18;;;;;;;17.88;9.40;;;;;;;16.20;29.64;99123.88;5008207;28;20045;-67
2022/03/09 10:19:50;;;;;;;22.17;11.38;;;;;;;15.71;30.08;99116.66;5007802;28;20026;-67
2022/03/09 10:22:36;;;;;;;20.38;11.60;;;;;;;15.24;29.39;99111.91;5008112;28;20026;-67
2022/03/09 10:25:10;;;;;;;19.90;10.30;;;;;;;15.79;29.23;99121.72;5007648;28;20214;-67
2022/03/09 10:27:45;;;;;;;18.20;10.15;;;;;;;15.56;28.84;99130.41;5007943;28;20082;-67
2022/03/09 10:30:14;;;;;;;17.65;9.68;;;;;;;15.82;29.63;99125.13;5007972;28;20032;-67
2022/03/09 10:32:45;;;;;;;17.85;10.75;;;;;;;16.19;29.14;99132.72;5007758;28;20213;-67
2022/03/09 10:35:13;;;;;;;19.55;10.90;;;;;;;16.00;28.88;99108.59;5007568;28;20022;-66
2022/03/09 10:37:40;;;;;;;21.60;11.32;;;;;;;15.07;29.72;99108.91;5007673;28;20054;-66
2022/03/09 10:40:14;;;;;;;19.63;11.15;;;;;;;15.33;30.88;99121.38;5007323;28;20267;-66
2022/03/09 10:42:40;;;;;;;20.75;12.00;;;;;;;15.77;30.76;99118.22;5007469;28;20334;-66
2022/03/09 10:45:08;;;;;;;24.92;12.02;;;;;;;15.15;29.82;99102.47;5007312;28;20026;-66
2022/03/09 10:47:38;;;;;;;21.48;11.55;;;;;;;15.36;31.14;99095.63;5007234;28;20059;-66
2022/03/09 10:50:16;;;;;;;23.42;11.73;;;;;;;15.30;30.18;99093.16;5007560;28;20068;-66
2022/03/09 10:52:55;;;;;;;26.75;12.15;;;;;;;15.70;30.86;99093.69;5006905;28;20033;-66
2022/03/09 10:55:51;;;;;;;21.48;11.68;;;;;;;15.74;30.92;99086.47;5007213;28;20030;-66
2022/03/09 10:58:22;;;;;;;23.35;11.80;;;;;;;15.67;31.00;99088.47;4991233;28;20065;-66
2022/03/09 11:00:52;;;;;;;32.40;17.25;;;;;;;15.69;31.12;99091.94;5007414;28;20082;-66
2022/03/09 11:03:24;;;;;;;27.15;13.13;;;;;;;15.66;30.01;99056.69;5006851;28;20341;-66
2022/03/09 11:06:01;;;;;;;27.87;14.17;;;;;;;15.78;30.69;99066.88;5007305;28;20026;-66
2022/03/09 11:08:34;;;;;;;25.83;12.95;;;;;;;15.45;30.64;99063.56;5007100;28;20068;-66
2022/03/09 11:11:00;;;;;;;28.73;13.82;;;;;;;15.16;30.77;99063.56;5006857;28;20089;-66
2022/03/09 11:13:30;;;;;;;28.15;13.40;;;;;;;14.83;30.64;99068.09;5006489;28;20034;-66
2022/03/09 11:15:55;;;;;;;24.85;12.68;;;;;;;15.33;31.06;99057.72;5006813;28;20030;-66
2022/03/09 11:18:28;;;;;;;24.38;12.75;;;;;;;15.40;31.02;99060.16;5006667;28;20029;-66
2022/03/09 11:21:02;;;;;;;25.05;13.18;;;;;;;15.36;30.29;99063.81;5006489;28;20114;-66
2022/03/09 11:23:29;;;;;;;26.00;12.52;;;;;;;15.40;31.05;99048.72;5006679;28;20333;-66